Time;durP1;ratioP1;P1;durP2;ratioP2;P2;SDS_P1;SDS_P2;PMS_P1;PMS_P2;Temp;Humidity;BMP_temperature;BMP_pressure;BME280_temperature;BME280_humidity;BME280_pressure;Samples;Min_cycle;Max_cycle;Signal;HPM_P1;HPM_P2
2022/06/22 00:01:16;;;;;;;14.43;7.43;;;;;;;17.07;71.09;101270.94;5070285;28;20483;-49
2022/06/22 00:04:04;;;;;;;15.75;7.82;;;;;;;17.03;71.54;101267.97;5066905;28;20128;-47
2022/06/22 00:06:55;;;;;;;15.30;6.68;;;;;;;17.01;71.75;101272.97;5076056;28;20059;-49
2022/06/22 00:09:44;;;;;;;12.77;6.82;;;;;;;16.97;71.81;101267.22;5074572;28;20484;-49
2022/06/22 00:12:32;;;;;;;13.57;6.18;;;;;;;16.92;72.08;101270.06;5057293;28;20048;-50
2022/06/22 00:15:31;;;;;;;12.32;6.13;;;;;;;16.75;73.34;101264.25;5072029;28;20048;-49
2022/06/22 00:18:25;;;;;;;12.35;5.95;;;;;;;16.62;73.79;101252.09;5061982;28;20526;-50
2022/06/22 00:21:20;;;;;;;13.15;6.00;;;;;;;16.57;74.11;101250.22;5074339;28;20058;-51
2022/06/22 00:24:23;;;;;;;14.43;6.15;;;;;;;16.44;75.08;101237.19;5071783;28;20380;-51
2022/06/22 00:27:27;;;;;;;14.10;6.47;;;;;;;16.33;76.08;101244.81;5065680;28;20056;-49
2022/06/22 00:30:24;;;;;;;11.95;5.75;;;;;;;16.15;76.71;101251.91;5068830;28;20082;-50
2022/06/22 00:33:22;;;;;;;12.15;5.50;;;;;;;16.05;78.05;101241.03;5056977;28;20051;-47
2022/06/22 00:36:19;;;;;;;13.45;5.85;;;;;;;15.94;78.80;101234.03;5063555;28;20036;-48
2022/06/22 00:39:22;;;;;;;11.75;5.78;;;;;;;15.94;79.03;101229.34;5059172;28;20052;-49
2022/06/22 00:42:15;;;;;;;15.35;6.00;;;;;;;15.89;79.57;101231.34;5067903;28;20048;-49
2022/06/22 00:45:07;;;;;;;10.63;5.65;;;;;;;15.93;79.74;101235.97;5067100;28;20094;-49
2022/06/22 00:48:18;;;;;;;9.88;5.25;;;;;;;16.04;79.14;101233.88;5073790;28;20048;-49
2022/06/22 00:51:08;;;;;;;12.40;5.13;;;;;;;16.03;78.82;101226.78;5062263;28;20499;-50
2022/06/22 00:54:06;;;;;;;13.25;5.55;;;;;;;15.96;79.16;101227.13;5054928;28;20087;-50
2022/06/22 00:57:08;;;;;;;14.55;6.20;;;;;;;15.77;80.42;101224.34;5053469;28;20068;-48
2022/06/22 01:00:00;;;;;;;12.27;4.97;;;;;;;15.72;81.52;101227.13;5064736;28;20094;-49
2022/06/22 01:03:00;;;;;;;12.48;5.72;;;;;;;15.71;81.98;101228.25;5072718;28;20128;-51
2022/06/22 01:06:07;;;;;;;12.65;4.60;;;;;;;15.79;82.03;101225.97;5066155;28;20037;-52
2022/06/22 01:08:58;;;;;;;12.32;5.53;;;;;;;15.87;81.29;101222.56;5058748;28;20136;-49
2022/06/22 01:12:19;;;;;;;16.27;5.40;;;;;;;15.92;81.18;101219.75;5063778;28;20127;-49
2022/06/22 01:15:27;;;;;;;11.60;5.22;;;;;;;15.88;81.64;101221.47;5071979;28;20044;-51
2022/06/22 01:18:38;;;;;;;14.15;5.55;;;;;;;15.69;82.90;101233.19;5060487;28;20059;-50
2022/06/22 01:21:37;;;;;;;11.05;5.22;;;;;;;15.57;84.26;101232.78;5060420;28;20510;-50
2022/06/22 01:25:02;;;;;;;13.13;5.38;;;;;;;15.57;84.73;101232.78;5055555;28;20049;-49
2022/06/22 01:27:51;;;;;;;11.50;5.63;;;;;;;15.61;84.28;101242.09;5055914;28;20067;-49
2022/06/22 01:30:44;;;;;;;12.02;5.30;;;;;;;15.67;84.47;101231.84;5075112;28;20053;-47
2022/06/22 01:33:38;;;;;;;12.23;5.25;;;;;;;15.59;84.61;101233.31;5063012;28;20041;-51
2022/06/22 01:36:33;;;;;;;12.68;5.70;;;;;;;15.57;85.16;101229.22;5071520;28;20552;-47
2022/06/22 01:39:20;;;;;;;12.35;5.38;;;;;;;15.57;85.19;101235.53;5078992;28;20045;-45
2022/06/22 01:42:16;;;;;;;11.85;4.78;;;;;;;15.56;85.91;101239.38;5073427;28;20041;-46
2022/06/22 01:45:11;;;;;;;10.40;5.00;;;;;;;15.63;85.64;101228.84;5065945;28;20040;-49
2022/06/22 01:48:19;;;;;;;10.25;5.20;;;;;;;15.69;85.32;101226.88;5073373;28;20056;-49
2022/06/22 01:51:30;;;;;;;12.57;5.10;;;;;;;15.62;85.28;101220.94;5070499;28;20044;-49
2022/06/22 01:54:30;;;;;;;9.63;5.07;;;;;;;15.43;86.75;101218.13;5047387;28;20419;-48
2022/06/22 01:57:24;;;;;;;12.60;5.22;;;;;;;15.36;87.72;101203.91;5068679;28;20079;-48
2022/06/22 02:00:14;;;;;;;11.43;5.43;;;;;;;15.38;87.47;101194.28;5074158;28;20090;-48
2022/06/22 02:03:16;;;;;;;14.63;5.68;;;;;;;15.48;86.79;101196.91;5049603;28;20406;-50
2022/06/22 02:07:44;;;;;;;10.30;5.38;;;;;;;15.42;87.60;101197.28;5055131;28;20119;-50
2022/06/22 02:09:18;;;;;;;14.45;5.43;;;;;;;15.34;87.80;101190.47;5049330;28;20049;-50
2022/06/22 02:12:20;;;;;;;11.07;5.10;;;;;;;15.34;88.01;101198.69;5064234;28;20037;-49
2022/06/22 02:15:17;;;;;;;11.45;5.53;;;;;;;15.28;88.64;101206.19;5072440;28;20060;-49
2022/06/22 02:18:20;;;;;;;11.23;5.32;;;;;;;15.34;88.29;101193.22;5072067;28;20102;-50
2022/06/22 02:21:23;;;;;;;11.77;5.28;;;;;;;15.27;88.94;101206.47;5056154;28;20053;-51
2022/06/22 02:24:14;;;;;;;12.02;5.22;;;;;;;15.27;88.95;101215.53;5072887;28;20471;-51
2022/06/22 02:27:15;;;;;;;9.52;4.93;;;;;;;15.30;88.96;101209.47;5064102;28;20044;-50
2022/06/22 02:30:03;;;;;;;11.82;5.03;;;;;;;15.29;88.81;101201.50;5067921;28;20044;-50
2022/06/22 02:32:51;;;;;;;9.38;5.22;;;;;;;15.30;88.94;101201.22;5074654;28;20044;-51
2022/06/22 02:35:41;;;;;;;15.48;5.20;;;;;;;15.29;89.01;101196.00;5063579;28;20052;-48
2022/06/22 02:38:28;;;;;;;15.55;5.68;;;;;;;15.24;89.22;101171.38;5039331;28;20041;-48
2022/06/22 02:44:34;;;;;;;12.82;5.22;;;;;;;15.18;89.54;101165.13;5061679;28;20049;-45
2022/06/22 02:47:44;;;;;;;13.32;5.30;;;;;;;15.12;90.35;101153.34;5026552;28;20049;-53
2022/06/22 02:50:43;;;;;;;11.70;4.90;;;;;;;15.11;89.83;101159.16;5060697;28;20557;-51
2022/06/22 02:53:34;;;;;;;12.00;5.28;;;;;;;15.13;90.09;101159.69;5056279;28;20132;-47
2022/06/22 02:56:45;;;;;;;11.25;5.40;;;;;;;15.03;90.75;101168.84;5063749;28;20056;-52
2022/06/22 02:59:33;;;;;;;11.05;5.50;;;;;;;15.03;90.89;101170.75;5063914;28;20403;-52
2022/06/22 03:02:23;;;;;;;10.07;5.28;;;;;;;15.12;90.65;101180.81;5064384;28;20055;-50
2022/06/22 03:05:13;;;;;;;18.05;6.38;;;;;;;15.22;89.59;101179.88;5068705;28;20057;-49
2022/06/22 03:08:01;;;;;;;13.68;5.75;;;;;;;15.19;89.55;101180.47;5072377;28;20540;-52
2022/06/22 03:10:53;;;;;;;13.05;5.75;;;;;;;15.18;89.45;101189.81;5068785;28;20041;-51
2022/06/22 03:13:48;;;;;;;10.38;5.65;;;;;;;15.22;89.38;101181.81;5071617;28;20056;-52
2022/06/22 03:16:39;;;;;;;13.00;6.18;;;;;;;15.17;88.90;101190.91;5070010;28;20053;-50
2022/06/22 03:19:45;;;;;;;13.90;5.75;;;;;;;15.12;89.47;101190.97;5075947;28;20044;-49
2022/06/22 03:22:45;;;;;;;9.68;5.50;;;;;;;15.09;90.03;101197.84;5065978;28;20044;-48
2022/06/22 03:25:51;;;;;;;11.88;5.20;;;;;;;15.12;89.44;101205.50;5070653;28;20110;-49
2022/06/22 03:28:43;;;;;;;13.00;5.88;;;;;;;15.20;89.42;101204.06;5073413;28;20079;-50
2022/06/22 03:31:44;;;;;;;9.57;5.25;;;;;;;15.27;88.88;101192.72;5046274;28;20600;-48
2022/06/22 03:34:37;;;;;;;10.77;5.53;;;;;;;15.24;88.13;101183.16;5053001;28;20059;-50
2022/06/22 03:37:35;;;;;;;12.95;6.00;;;;;;;15.15;88.63;101184.88;5047670;28;20488;-48
2022/06/22 03:40:12;;;;;;;11.68;6.00;;;;;;;15.06;89.43;101186.66;5044876;28;20068;-51
2022/06/22 03:43:16;;;;;;;11.98;5.60;;;;;;;14.93;90.11;101190.06;5043747;28;20494;-49
2022/06/22 03:46:03;;;;;;;12.20;6.30;;;;;;;14.84;91.21;101181.63;5057011;28;20037;-48
2022/06/22 03:48:59;;;;;;;14.18;6.07;;;;;;;14.88;91.15;101172.53;5067279;28;20048;-46
2022/06/22 03:52:09;;;;;;;12.90;6.15;;;;;;;14.94;90.46;101170.56;5080512;28;20044;-47
2022/06/22 03:55:23;;;;;;;13.35;5.70;;;;;;;14.88;90.63;101166.22;5073365;28;20052;-47
2022/06/22 03:58:12;;;;;;;13.13;6.32;;;;;;;14.94;90.78;101175.25;5057801;28;20510;-50
2022/06/22 04:01:01;;;;;;;12.95;5.82;;;;;;;15.02;90.60;101174.59;5072871;28;20049;-48
2022/06/22 04:03:49;;;;;;;11.18;6.15;;;;;;;15.08;90.20;101160.56;5069783;28;20049;-49
2022/06/22 04:06:45;;;;;;;;;;;;;;;15.09;89.60;101164.09;5072849;28;20044;-49
2022/06/22 04:09:32;;;;;;;12.82;6.43;;;;;;;15.07;89.95;101169.06;5052163;28;19928;-50
2022/06/22 04:12:25;;;;;;;15.85;6.28;;;;;;;14.98;91.04;101168.06;5060423;28;20488;-48
2022/06/22 04:15:44;;;;;;;14.50;6.95;;;;;;;14.98;91.07;101165.31;5062184;28;20041;-51
2022/06/22 04:18:38;;;;;;;15.60;6.75;;;;;;;14.72;93.00;101165.56;5069213;28;20041;-47
2022/06/22 04:21:29;;;;;;;13.13;6.28;;;;;;;14.76;93.24;101163.84;5072057;28;20048;-48
2022/06/22 04:24:24;;;;;;;13.73;6.25;;;;;;;14.79;93.12;101160.56;5064731;28;20048;-46
2022/06/22 04:27:18;;;;;;;13.90;6.40;;;;;;;14.83;93.13;101167.09;5071618;28;20044;-48
2022/06/22 04:30:22;;;;;;;13.02;6.05;;;;;;;14.83;93.52;101171.75;5059086;28;20049;-49
2022/06/22 04:33:15;;;;;;;11.43;5.80;;;;;;;14.90;93.42;101170.31;5071580;28;20110;-50
2022/06/22 04:36:27;;;;;;;15.65;7.10;;;;;;;15.01;92.92;101172.94;5070188;28;20045;-48
2022/06/22 04:39:20;;;;;;;13.27;6.10;;;;;;;15.02;92.48;101177.34;5073141;28;20047;-51
2022/06/22 04:42:09;;;;;;;12.75;5.80;;;;;;;14.98;93.13;101174.34;5073525;28;20055;-49
2022/06/22 04:44:58;;;;;;;12.13;5.72;;;;;;;15.06;92.98;101181.16;5073576;28;20069;-49
2022/06/22 04:47:45;;;;;;;12.55;5.50;;;;;;;15.11;92.82;101189.34;5073353;28;20445;-49
2022/06/22 04:50:35;;;;;;;11.73;5.75;;;;;;;15.10;93.00;101198.66;5059887;28;20040;-48
2022/06/22 04:53:29;;;;;;;16.50;6.35;;;;;;;15.16;93.10;101203.00;5069102;28;20102;-52
2022/06/22 04:56:21;;;;;;;15.70;6.57;;;;;;;15.13;92.64;101192.63;5067697;28;20449;-50
2022/06/22 04:59:12;;;;;;;11.60;6.00;;;;;;;15.19;92.70;101194.19;5065753;28;20052;-55
2022/06/22 05:02:02;;;;;;;11.73;6.20;;;;;;;15.21;92.72;101199.41;5061277;28;20041;-55
2022/06/22 05:04:55;;;;;;;14.13;5.85;;;;;;;15.22;92.43;101203.78;5052493;28;20446;-51
2022/06/22 05:07:52;;;;;;;11.98;5.82;;;;;;;15.27;92.31;101210.03;5068034;28;20406;-51
2022/06/22 05:10:52;;;;;;;13.80;6.15;;;;;;;15.32;91.74;101212.75;5071130;28;20045;-53
2022/06/22 05:13:50;;;;;;;11.70;6.55;;;;;;;15.29;92.28;101216.03;5061211;28;20513;-51
2022/06/22 05:16:38;;;;;;;11.52;5.82;;;;;;;15.28;92.36;101222.66;5076099;28;20316;-55
2022/06/22 05:19:36;;;;;;;12.32;6.32;;;;;;;15.31;92.00;101232.22;4354665;28;10000215;-54
2022/06/22 05:22:24;;;;;;;12.02;7.18;;;;;;;15.37;92.44;101235.75;5069412;28;20570;-51
2022/06/22 05:25:13;;;;;;;12.02;6.55;;;;;;;15.37;92.24;101230.25;5051317;28;20049;-54
2022/06/22 05:28:05;;;;;;;13.18;6.55;;;;;;;15.41;92.76;101231.31;5062681;28;20098;-50
2022/06/22 05:31:02;;;;;;;17.55;7.30;;;;;;;15.47;91.77;101241.16;5058161;28;20048;-53
2022/06/22 05:33:52;;;;;;;12.73;6.65;;;;;;;15.48;91.96;101253.75;5052378;28;20045;-55
2022/06/22 05:36:44;;;;;;;12.50;7.57;;;;;;;15.46;92.05;101245.78;5067860;28;20051;-54
2022/06/22 05:39:33;;;;;;;16.27;7.60;;;;;;;15.43;92.67;101234.59;5058012;28;20487;-53
2022/06/22 05:42:21;;;;;;;13.45;7.00;;;;;;;15.49;92.91;101236.16;5090565;28;20052;-55
2022/06/22 05:45:21;;;;;;;13.93;8.32;;;;;;;15.59;92.65;101232.50;5062194;28;20115;-60
2022/06/22 05:48:15;;;;;;;14.95;7.72;;;;;;;15.62;92.02;101229.97;5054651;28;20067;-54
2022/06/22 05:51:25;;;;;;;14.65;6.75;;;;;;;15.63;92.16;101228.84;5069089;28;20047;-54
2022/06/22 05:54:32;;;;;;;13.45;7.00;;;;;;;15.70;91.61;101240.34;5065676;28;20048;-56
2022/06/22 05:57:27;;;;;;;15.77;7.88;;;;;;;15.80;91.25;101233.09;5062985;28;20052;-54
2022/06/22 06:00:21;;;;;;;16.53;7.70;;;;;;;15.85;91.05;101224.78;5066491;28;20438;-52
2022/06/22 06:03:16;;;;;;;20.10;7.90;;;;;;;15.89;91.47;101225.84;5065612;28;20305;-52
2022/06/22 06:06:27;;;;;;;13.20;7.57;;;;;;;15.90;90.67;101241.25;5052433;28;20094;-52
2022/06/22 06:09:22;;;;;;;14.13;7.15;;;;;;;15.98;90.60;101243.34;5053499;28;20487;-52
2022/06/22 06:12:32;;;;;;;13.93;7.80;;;;;;;16.09;90.51;101242.09;5054198;28;20048;-52
2022/06/22 06:15:19;;;;;;;14.68;8.05;;;;;;;16.15;90.91;101251.09;5068980;28;20064;-52
2022/06/22 06:18:10;;;;;;;14.57;7.15;;;;;;;16.22;89.65;101258.97;5067051;28;20051;-53
2022/06/22 06:21:19;;;;;;;13.85;6.38;;;;;;;16.30;88.20;101255.56;5078583;28;20036;-55
2022/06/22 06:24:24;;;;;;;13.65;6.38;;;;;;;16.34;86.86;101251.09;5082880;28;20043;-53
2022/06/22 06:27:34;;;;;;;15.40;6.85;;;;;;;16.40;86.96;101252.66;5055728;28;20514;-55
2022/06/22 06:30:42;;;;;;;17.65;7.07;;;;;;;16.49;85.98;101250.06;5060819;28;20048;-52
2022/06/22 06:33:38;;;;;;;12.82;7.05;;;;;;;16.51;86.51;101254.16;5058056;28;20074;-50
2022/06/22 06:36:31;;;;;;;12.85;7.00;;;;;;;16.54;86.64;101248.06;5076889;28;20059;-55
2022/06/22 06:39:22;;;;;;;13.68;6.43;;;;;;;16.59;85.58;101245.22;5057921;28;20052;-56
2022/06/22 06:42:38;;;;;;;13.40;6.95;;;;;;;16.65;85.85;101247.91;5073255;28;20075;-56
2022/06/22 06:45:19;;;;;;;11.40;5.90;;;;;;;16.71;84.54;101252.22;5033589;28;20052;-55
2022/06/22 06:48:12;;;;;;;14.68;5.60;;;;;;;16.75;84.56;101245.81;5069852;28;20053;-56
2022/06/22 06:51:01;;;;;;;16.27;9.63;;;;;;;16.80;85.06;101253.22;5034893;28;20044;-55
2022/06/22 06:54:07;;;;;;;10.68;5.95;;;;;;;16.87;81.34;101256.41;5049810;28;20076;-56
2022/06/22 06:56:59;;;;;;;;;;;;;;;16.90;82.20;101246.72;5066782;28;20052;-55
2022/06/22 06:59:51;;;;;;;11.30;5.43;;;;;;;16.92;81.81;101248.06;5089622;28;19927;-56
2022/06/22 07:02:42;;;;;;;13.90;6.50;;;;;;;16.96;82.13;101229.00;5062535;28;20049;-50
2022/06/22 07:05:31;;;;;;;12.13;5.20;;;;;;;17.02;80.67;101222.28;5060925;28;20127;-56
2022/06/22 07:08:16;;;;;;;12.38;5.20;;;;;;;17.06;78.52;101225.25;5072732;28;20048;-53
2022/06/22 07:11:33;;;;;;;9.63;4.97;;;;;;;17.13;77.20;101225.69;5065679;28;20049;-56
2022/06/22 07:14:42;;;;;;;13.57;6.10;;;;;;;17.18;77.57;101226.41;5060792;28;20412;-57
2022/06/22 07:17:32;;;;;;;11.15;5.88;;;;;;;17.23;78.23;101222.75;5062167;28;20049;-56
2022/06/22 07:20:28;;;;;;;10.77;5.55;;;;;;;17.31;76.82;101230.31;5074618;28;20044;-52
2022/06/22 07:23:24;;;;;;;33.90;10.75;;;;;;;17.29;76.70;101229.78;5056438;28;20183;-54
2022/06/22 07:26:30;;;;;;;14.90;6.78;;;;;;;17.40;75.28;101222.97;5049569;28;20484;-48
2022/06/22 07:29:25;;;;;;;13.80;6.03;;;;;;;17.50;73.51;101212.88;5054865;28;20158;-48
2022/06/22 07:32:21;;;;;;;14.98;6.20;;;;;;;17.50;75.39;101213.69;5066575;28;20048;-50
2022/06/22 07:35:30;;;;;;;12.30;5.88;;;;;;;17.52;74.64;101210.66;5070222;28;20050;-51
2022/06/22 07:38:43;;;;;;;11.55;5.82;;;;;;;17.54;73.93;101213.91;5072064;28;20553;-52
2022/06/22 07:41:31;;;;;;;20.40;7.10;;;;;;;17.62;73.79;101210.44;5054537;28;20064;-51
2022/06/22 07:44:22;;;;;;;13.23;6.00;;;;;;;17.70;73.08;101206.97;5052922;28;20052;-52
2022/06/22 07:47:16;;;;;;;11.60;5.88;;;;;;;17.73;72.59;101195.34;5049087;28;20051;-52
2022/06/22 07:50:32;;;;;;;10.90;5.03;;;;;;;17.85;70.60;101192.91;5060512;28;20553;-53
2022/06/22 07:53:27;;;;;;;17.15;6.00;;;;;;;17.87;70.13;101192.56;5043523;28;20061;-54
2022/06/22 07:56:21;;;;;;;14.48;5.47;;;;;;;17.81;70.78;101202.91;5075497;28;20048;-52
2022/06/22 07:59:13;;;;;;;11.25;5.72;;;;;;;17.78;72.70;101211.78;5056660;28;20387;-54
2022/06/22 08:02:05;;;;;;;14.23;5.85;;;;;;;17.78;73.87;101209.00;5081298;28;20173;-53
2022/06/22 08:04:57;;;;;;;12.45;4.75;;;;;;;17.83;72.00;101211.69;5074160;28;20449;-53
2022/06/22 08:07:57;;;;;;;18.38;5.88;;;;;;;17.88;71.04;101206.06;5070776;28;20048;-52
2022/06/22 08:10:52;;;;;;;10.50;4.50;;;;;;;17.83;71.82;101217.19;5072385;28;20052;-53
2022/06/22 08:13:56;;;;;;;10.93;4.80;;;;;;;17.92;70.31;101213.72;5067593;28;20041;-52
2022/06/22 08:16:51;;;;;;;12.90;4.75;;;;;;;17.99;70.05;101203.94;5074878;28;20051;-51
2022/06/22 08:19:39;;;;;;;11.70;4.32;;;;;;;18.04;68.73;101216.78;5071407;28;20045;-51
2022/06/22 08:22:26;;;;;;;11.43;4.32;;;;;;;18.07;68.09;101219.72;5073475;28;20500;-54
2022/06/22 08:25:17;;;;;;;11.60;3.95;;;;;;;18.18;67.10;101209.28;5068837;28;20200;-50
2022/06/22 08:28:06;;;;;;;13.40;4.78;;;;;;;18.27;66.07;101214.88;5074907;28;20132;-53
2022/06/22 08:30:55;;;;;;;9.93;4.18;;;;;;;18.31;65.73;101227.75;5073972;28;20140;-56
2022/06/22 08:33:57;;;;;;;11.10;4.68;;;;;;;18.40;64.79;101227.00;5067335;28;20040;-52
2022/06/22 08:36:54;;;;;;;16.73;4.90;;;;;;;18.50;64.26;101229.53;5092631;28;20114;-52
2022/06/22 08:39:48;;;;;;;10.05;4.15;;;;;;;18.53;64.94;101231.66;5078274;28;20048;-51
2022/06/22 08:42:44;;;;;;;11.15;3.90;;;;;;;18.55;64.40;101232.19;5064723;28;20041;-53
2022/06/22 08:46:03;;;;;;;9.98;3.80;;;;;;;18.71;63.29;101229.84;5022042;28;20494;-55
2022/06/22 08:49:19;;;;;;;12.85;4.13;;;;;;;18.76;59.83;101220.63;5066338;28;20052;-54
2022/06/22 08:52:30;;;;;;;10.05;3.60;;;;;;;18.80;59.96;101222.50;5061166;28;20048;-54
2022/06/22 08:56:24;;;;;;;17.98;6.88;;;;;;;18.91;59.25;101225.84;5062912;28;20075;-52
2022/06/22 08:59:23;;;;;;;9.38;3.90;;;;;;;18.91;59.37;101220.31;5042803;28;20048;-50
2022/06/22 09:02:35;;;;;;;12.45;5.13;;;;;;;18.88;58.47;101218.16;5058896;28;20090;-53
2022/06/22 09:05:43;;;;;;;14.35;4.45;;;;;;;18.86;60.12;101221.25;5072989;28;20392;-51
2022/06/22 09:08:52;;;;;;;14.55;4.45;;;;;;;18.97;58.85;101216.28;5073407;28;20051;-49
2022/06/22 09:12:06;;;;;;;9.40;3.75;;;;;;;19.11;58.19;101205.97;5070071;28;20486;-50
2022/06/22 09:15:21;;;;;;;13.60;5.20;;;;;;;19.17;55.59;101214.94;5065733;28;20063;-52
2022/06/22 09:18:31;;;;;;;;;;;;;;;19.20;57.71;101213.50;5092561;28;20052;-49
2022/06/22 09:21:31;;;;;;;12.32;4.55;;;;;;;19.23;57.12;101215.63;5068997;28;19920;-55
2022/06/22 09:24:23;;;;;;;10.70;4.00;;;;;;;19.22;57.51;101222.25;5046591;28;20045;-54
2022/06/22 09:27:19;;;;;;;10.98;3.85;;;;;;;19.16;58.06;101216.06;5063483;28;20495;-49
2022/06/22 09:30:25;;;;;;;8.13;3.50;;;;;;;19.16;58.54;101221.59;5076353;28;20046;-52
2022/06/22 09:33:35;;;;;;;13.35;3.70;;;;;;;19.36;57.41;101229.34;5091591;28;20072;-51
2022/06/22 09:37:00;;;;;;;9.75;3.95;;;;;;;19.46;57.54;101224.66;5062978;28;20094;-51
2022/06/22 09:40:04;;;;;;;8.27;3.50;;;;;;;19.54;56.49;101224.69;5062144;28;20048;-51
2022/06/22 09:43:10;;;;;;;10.52;3.30;;;;;;;19.64;56.62;101228.31;5064282;28;20052;-52
2022/06/22 09:46:29;;;;;;;5.30;2.80;;;;;;;19.71;56.36;101234.22;5072541;28;20341;-53
2022/06/22 09:49:52;;;;;;;11.60;4.07;;;;;;;19.70;55.23;101236.19;5073577;28;20044;-52
2022/06/22 09:53:10;;;;;;;13.43;4.82;;;;;;;19.70;57.27;101232.59;5066976;28;20045;-52
2022/06/22 09:56:24;;;;;;;18.77;5.90;;;;;;;19.77;55.94;101231.00;4355746;28;10000723;-53
2022/06/22 09:59:26;;;;;;;12.60;4.10;;;;;;;19.85;56.33;101229.41;5049411;28;20071;-55
2022/06/22 10:02:45;;;;;;;10.13;3.80;;;;;;;19.93;55.69;101223.06;5063845;28;20495;-56
2022/06/22 10:05:51;;;;;;;9.90;3.53;;;;;;;19.93;56.08;101220.31;5058228;28;20133;-50
2022/06/22 10:08:38;;;;;;;11.52;3.42;;;;;;;19.98;55.51;101228.44;5055034;28;20052;-54
2022/06/22 10:11:55;;;;;;;11.00;3.88;;;;;;;19.99;54.81;101227.31;5065789;28;20063;-52
2022/06/22 10:14:45;;;;;;;11.35;3.42;;;;;;;20.10;53.56;101230.59;5052186;28;20045;-53
2022/06/22 10:18:08;;;;;;;9.60;3.13;;;;;;;20.14;53.73;101219.69;5061683;28;20052;-51
2022/06/22 10:21:18;;;;;;;10.77;3.13;;;;;;;20.24;50.69;101224.09;5068353;28;20040;-53
2022/06/22 10:24:11;;;;;;;5.50;2.50;;;;;;;20.27;48.91;101218.72;5053707;28;20045;-53
2022/06/22 10:27:12;;;;;;;8.45;2.95;;;;;;;20.26;51.03;101217.13;5057465;28;20043;-52
2022/06/22 10:30:17;;;;;;;7.70;3.22;;;;;;;20.30;51.77;101218.09;5058349;28;20044;-51
2022/06/22 10:33:27;;;;;;;7.47;2.70;;;;;;;20.34;52.32;101213.53;5054913;28;20495;-52
2022/06/22 10:36:46;;;;;;;9.52;3.67;;;;;;;20.29;53.37;101202.63;5063323;28;20491;-56
2022/06/22 10:39:49;;;;;;;8.43;2.85;;;;;;;20.35;52.89;101201.34;5064441;28;20056;-54
2022/06/22 10:46:38;;;;;;;7.43;2.60;;;;;;;20.53;51.49;101193.03;5029744;28;20056;-51
2022/06/22 10:50:00;;;;;;;5.43;2.50;;;;;;;20.60;52.15;101182.31;5063176;28;20127;-54
2022/06/22 10:53:26;;;;;;;10.85;2.95;;;;;;;20.62;51.27;101180.81;5059792;28;20581;-55
2022/06/22 10:56:30;;;;;;;7.20;2.70;;;;;;;20.71;51.53;101188.28;5058817;28;20056;-54
2022/06/22 10:59:26;;;;;;;13.10;3.53;;;;;;;20.77;49.75;101193.34;5064228;28;20036;-51
2022/06/22 11:02:46;;;;;;;7.35;3.03;;;;;;;20.85;47.57;101197.25;5070969;28;20044;-52
2022/06/22 11:06:04;;;;;;;8.07;2.95;;;;;;;20.91;47.71;101186.81;5069435;28;20045;-55
2022/06/22 11:08:52;;;;;;;5.53;2.40;;;;;;;20.93;47.34;101176.22;5075050;28;20051;-56
2022/06/22 11:11:57;;;;;;;8.15;2.70;;;;;;;21.01;46.59;101192.81;5090372;28;20041;-52
2022/06/22 11:15:30;;;;;;;8.68;2.50;;;;;;;20.96;47.25;101190.22;5076051;28;20091;-53
2022/06/22 11:18:49;;;;;;;8.40;2.63;;;;;;;20.96;46.59;101175.56;5055912;28;20057;-53
2022/06/22 11:21:48;;;;;;;5.03;2.58;;;;;;;21.08;45.38;101164.59;5063236;28;20056;-54
2022/06/22 11:24:45;;;;;;;6.00;2.45;;;;;;;21.11;45.76;101168.66;5047368;28;20071;-51
2022/06/22 11:30:53;;;;;;;9.90;3.08;;;;;;;21.35;44.44;101179.19;5090239;28;20058;-54
2022/06/22 11:34:03;;;;;;;8.75;2.50;;;;;;;21.20;45.95;101170.25;5065214;28;20048;-53
2022/06/22 11:37:27;;;;;;;9.18;3.17;;;;;;;21.25;43.88;101178.41;5063933;28;20056;-48
2022/06/22 11:40:50;;;;;;;;;;;;;;;21.28;45.02;101180.50;5073631;28;20056;-49
2022/06/22 11:43:48;;;;;;;6.68;2.15;;;;;;;21.38;44.20;101175.72;5064459;28;19924;-50
2022/06/22 11:46:57;;;;;;;5.88;2.33;;;;;;;21.58;42.74;101190.84;5074222;28;20037;-52
2022/06/22 11:50:05;;;;;;;5.75;2.30;;;;;;;21.54;43.71;101187.91;5074814;28;20044;-53
2022/06/22 11:53:00;;;;;;;4.85;2.60;;;;;;;21.59;43.99;101187.72;5074978;28;20062;-54
2022/06/22 11:56:14;;;;;;;5.55;2.38;;;;;;;21.62;43.94;101184.31;5064502;28;20048;-54
2022/06/22 11:59:13;;;;;;;6.72;2.42;;;;;;;21.73;43.97;101186.69;5072883;28;20048;-53
2022/06/22 12:02:25;;;;;;;6.65;2.47;;;;;;;21.83;41.74;101187.09;5074791;28;20044;-53
2022/06/22 12:05:35;;;;;;;10.13;2.40;;;;;;;21.79;42.52;101183.41;5072314;28;20060;-55
2022/06/22 12:08:49;;;;;;;4.93;2.20;;;;;;;21.74;41.07;101183.56;5075168;28;20049;-53
2022/06/22 12:11:54;;;;;;;6.70;2.22;;;;;;;21.78;40.29;101180.94;5058859;28;20048;-54
2022/06/22 12:15:19;;;;;;;5.03;2.35;;;;;;;22.04;38.70;101170.50;5077384;28;20048;-53
2022/06/22 12:18:48;;;;;;;5.47;2.10;;;;;;;22.13;39.32;101171.25;5074028;28;20092;-54
2022/06/22 12:22:06;;;;;;;4.35;2.47;;;;;;;22.25;38.27;101166.97;5065219;28;20056;-49
2022/06/22 12:25:15;;;;;;;4.78;1.98;;;;;;;22.30;38.20;101169.53;5066731;28;20514;-51
2022/06/22 12:28:14;;;;;;;3.78;2.05;;;;;;;22.32;38.17;101153.31;5073869;28;20037;-52
2022/06/22 12:31:14;;;;;;;6.70;2.42;;;;;;;22.30;38.29;101152.88;5090974;28;20052;-54
2022/06/22 12:34:33;;;;;;;8.73;2.70;;;;;;;22.34;39.36;101142.69;5063584;28;20045;-55
2022/06/22 12:37:29;;;;;;;7.82;2.30;;;;;;;22.25;38.56;101147.53;5066275;28;20056;-54
2022/06/22 12:40:41;;;;;;;6.65;2.15;;;;;;;22.16;39.45;101147.56;5072258;28;20056;-55
2022/06/22 12:43:45;;;;;;;5.93;2.45;;;;;;;22.15;38.27;101140.38;5060689;28;20036;-52
2022/06/22 12:46:52;;;;;;;2.85;1.70;;;;;;;22.26;38.15;101130.50;5055774;28;20098;-53
2022/06/22 12:49:47;;;;;;;4.00;1.85;;;;;;;22.38;36.43;101126.19;5072221;28;20044;-51
2022/06/22 12:52:47;;;;;;;4.80;2.22;;;;;;;22.33;36.19;101129.97;5072606;28;20051;-50
2022/06/22 12:55:44;;;;;;;3.72;1.77;;;;;;;22.42;35.44;101116.81;5070625;28;20049;-53
2022/06/22 12:58:48;;;;;;;3.45;2.05;;;;;;;22.53;35.72;101118.00;5072154;28;20040;-54
2022/06/22 13:01:37;;;;;;;4.82;1.90;;;;;;;22.58;34.98;101113.41;5061817;28;20052;-52
2022/06/22 13:04:28;;;;;;;6.95;2.28;;;;;;;22.55;36.50;101114.88;5074370;28;20094;-55
2022/06/22 13:07:18;;;;;;;4.47;2.42;;;;;;;22.57;36.90;101095.13;5059347;28;20415;-49
2022/06/22 13:10:06;;;;;;;6.10;2.10;;;;;;;22.67;36.16;101105.78;5069317;28;20414;-48
2022/06/22 13:13:18;;;;;;;6.10;1.98;;;;;;;22.70;36.13;101088.44;5063719;28;20043;-49
2022/06/22 13:16:34;;;;;;;3.72;1.95;;;;;;;22.74;36.08;101100.47;5071357;28;20048;-54
2022/06/22 13:19:58;;;;;;;4.05;1.55;;;;;;;22.71;35.46;101090.88;5074282;28;20471;-53
2022/06/22 13:22:51;;;;;;;6.78;2.00;;;;;;;22.82;35.99;101084.88;5077529;28;20040;-51
2022/06/22 13:25:41;;;;;;;6.88;2.10;;;;;;;22.86;35.86;101089.38;5078102;28;20445;-53
2022/06/22 13:28:54;;;;;;;4.95;1.80;;;;;;;22.82;36.57;101085.66;5062991;28;20045;-54
2022/06/22 13:31:49;;;;;;;3.72;1.58;;;;;;;22.86;34.92;101085.81;5053058;28;20077;-50
2022/06/22 13:34:50;;;;;;;5.82;2.00;;;;;;;22.82;34.91;101080.09;5072975;28;20433;-50
2022/06/22 13:38:02;;;;;;;2.88;1.67;;;;;;;22.85;34.64;101073.88;5068313;28;20098;-50
2022/06/22 13:41:24;;;;;;;7.57;1.80;;;;;;;22.89;35.04;101068.44;5064476;28;20041;-50
2022/06/22 13:43:57;;;;;;;5.63;2.10;;;;;;;23.02;35.98;101069.28;5066564;28;20052;-51
2022/06/22 13:46:51;;;;;;;4.40;1.80;;;;;;;23.02;35.82;101064.56;5075224;28;20045;-50
2022/06/22 13:49:57;;;;;;;3.47;1.88;;;;;;;23.14;36.97;101067.31;5072214;28;20052;-55
2022/06/22 13:52:49;;;;;;;3.20;1.55;;;;;;;23.22;37.93;101060.03;5070935;28;20048;-54
2022/06/22 13:56:10;;;;;;;5.18;1.90;;;;;;;23.19;37.51;101055.16;5064461;28;20060;-52
2022/06/22 13:59:01;;;;;;;7.88;2.08;;;;;;;23.37;36.58;101059.31;5039900;28;20041;-53
2022/06/22 14:01:54;;;;;;;7.07;2.20;;;;;;;23.38;34.94;101058.16;5055332;28;20071;-50